Time;durP1;ratioP1;P1;durP2;ratioP2;P2;SDS_P1;SDS_P2;PMS_P1;PMS_P2;Temp;Humidity;BMP_temperature;BMP_pressure;BME280_temperature;BME280_humidity;BME280_pressure;Samples;Min_cycle;Max_cycle;Signal;HPM_P1;HPM_P2
2021/04/19 00:00:26;;;;;;;0.88;0.88;;;;;;;3.46;100.00;100826.18;1824092;78;21134;-42
2021/04/19 00:02:54;;;;;;;0.55;0.55;;;;;;;3.49;100.00;100824.41;1824424;78;21122;-42
2021/04/19 00:05:22;;;;;;;0.10;0.10;;;;;;;3.52;100.00;100817.73;1816749;78;21137;-43
2021/04/19 00:07:50;;;;;;;0.42;0.42;;;;;;;3.58;100.00;100816.81;1735279;81;21156;-42
2021/04/19 00:10:19;;;;;;;0.42;0.42;;;;;;;3.61;100.00;100817.71;1806573;78;20995;-42
2021/04/19 00:12:47;;;;;;;0.00;0.00;;;;;;;3.64;100.00;100817.29;1824030;78;21137;-42
2021/04/19 00:15:18;;;;;;;0.62;0.62;;;;;;;3.68;100.00;100821.17;1774536;79;21090;-42
2021/04/19 00:17:47;;;;;;;0.90;0.90;;;;;;;3.72;100.00;100817.52;1792128;78;21160;-42
2021/04/19 00:20:17;;;;;;;0.50;0.50;;;;;;;3.75;100.00;100822.46;1791894;78;21189;-42
2021/04/19 00:22:44;;;;;;;0.10;0.10;;;;;;;3.76;100.00;100823.60;1791921;78;21133;-43
2021/04/19 00:25:13;;;;;;;2.33;1.50;;;;;;;3.76;100.00;100817.34;1791471;80;21130;-43
2021/04/19 00:27:42;;;;;;;0.20;0.20;;;;;;;3.76;100.00;100821.40;1791007;80;21160;-43
2021/04/19 00:30:10;;;;;;;0.08;0.08;;;;;;;3.74;100.00;100816.23;1791180;80;21149;-43
2021/04/19 00:32:38;;;;;;;0.90;0.40;;;;;;;3.72;100.00;100819.69;1805853;78;21146;-43
2021/04/19 00:35:07;;;;;;;0.53;0.53;;;;;;;3.68;100.00;100815.77;1814187;78;21161;-42
2021/04/19 00:37:35;;;;;;;0.10;0.10;;;;;;;3.63;100.00;100812.91;1791295;78;21157;-42
2021/04/19 00:40:11;;;;;;;0.17;0.17;;;;;;;3.58;100.00;100804.66;1791137;80;21130;-43
2021/04/19 00:42:39;;;;;;;0.17;0.17;;;;;;;3.51;100.00;100808.80;1791580;80;21113;-43
2021/04/19 00:45:07;;;;;;;0.30;0.30;;;;;;;3.47;100.00;100817.58;1791774;80;21142;-43
2021/04/19 00:47:35;;;;;;;0.40;0.40;;;;;;;3.38;100.00;100817.84;1808009;78;21537;-43
2021/04/19 00:50:09;;;;;;;0.10;0.10;;;;;;;3.33;100.00;100811.47;1769499;78;21129;-43
2021/04/19 00:52:36;;;;;;;0.35;0.35;;;;;;;3.26;100.00;100808.00;1822180;78;20940;-42
2021/04/19 00:55:11;;;;;;;0.80;0.80;;;;;;;3.18;100.00;100805.88;1823761;78;21126;-42
2021/04/19 00:57:39;;;;;;;0.30;0.30;;;;;;;3.11;100.00;100800.23;1800927;78;21106;-42
2021/04/19 01:00:11;;;;;;;0.30;0.30;;;;;;;3.02;100.00;100801.06;1735093;81;21153;-43
2021/04/19 01:02:39;;;;;;;0.80;0.33;;;;;;;2.91;100.00;100805.28;1791947;80;21109;-43
2021/04/19 01:05:13;;;;;;;0.53;0.53;;;;;;;2.80;100.00;100806.83;1735249;82;21687;-42
2021/04/19 01:07:41;;;;;;;0.17;0.17;;;;;;;2.74;100.00;100808.22;1735467;81;21209;-42
2021/04/19 01:10:10;;;;;;;0.20;0.20;;;;;;;2.68;100.00;100806.41;1791167;79;21141;-42
2021/04/19 01:12:37;;;;;;;0.20;0.20;;;;;;;2.61;100.00;100804.27;1721602;81;21170;-42
2021/04/19 01:15:06;;;;;;;1.00;0.53;;;;;;;2.54;100.00;100809.17;1723845;83;21122;-42
2021/04/19 01:17:35;;;;;;;1.22;1.05;;;;;;;2.47;100.00;100805.69;1721669;81;21107;-42
2021/04/19 01:20:08;;;;;;;0.98;0.98;;;;;;;2.38;100.00;100802.97;1723833;83;21477;-42
2021/04/19 01:22:37;;;;;;;1.07;0.30;;;;;;;2.32;100.00;100807.86;1737556;81;21142;-42
2021/04/19 01:25:07;;;;;;;2.50;0.72;;;;;;;2.24;100.00;100803.55;1781201;80;21163;-42
2021/04/19 01:27:35;;;;;;;0.20;0.20;;;;;;;2.19;100.00;100811.98;1753719;81;21126;-42
2021/04/19 01:30:04;;;;;;;1.12;0.42;;;;;;;2.12;100.00;100818.75;1750934;81;21194;-42
2021/04/19 01:32:32;;;;;;;0.20;0.20;;;;;;;2.08;100.00;100821.06;1723381;81;21445;-42
2021/04/19 01:35:00;;;;;;;0.45;0.45;;;;;;;2.03;100.00;100818.19;1762289;80;21150;-42
2021/04/19 01:37:28;;;;;;;0.05;0.05;;;;;;;1.98;100.00;100813.11;1762247;81;21161;-42
2021/04/19 01:39:59;;;;;;;0.00;0.00;;;;;;;1.93;100.00;100808.38;1762536;81;21584;-42
2021/04/19 01:42:27;;;;;;;0.55;0.55;;;;;;;1.90;100.00;100814.17;1729601;81;21122;-42
2021/04/19 01:44:55;;;;;;;0.20;0.20;;;;;;;1.83;100.00;100807.48;1730210;81;21090;-42
2021/04/19 01:47:24;;;;;;;0.20;0.20;;;;;;;1.79;100.00;100795.47;1748335;81;21152;-42
2021/04/19 01:49:52;;;;;;;0.33;0.28;;;;;;;1.76;100.00;100799.94;1758121;81;21157;-42
2021/04/19 01:52:20;;;;;;;0.20;0.20;;;;;;;1.74;100.00;100792.58;1742710;81;21126;-42
2021/04/19 01:54:47;;;;;;;0.08;0.08;;;;;;;1.71;100.00;100789.80;1757402;81;21542;-42
2021/04/19 01:57:15;;;;;;;0.65;0.65;;;;;;;1.68;100.00;100802.35;1732418;81;21134;-42
2021/04/19 01:59:43;;;;;;;0.28;0.28;;;;;;;1.65;100.00;100791.16;1701311;82;21189;-42
2021/04/19 02:02:30;;;;;;;0.10;0.10;;;;;;;1.60;100.00;100801.22;1742901;81;21149;-42
2021/04/19 02:05:33;;;;;;;0.03;0.03;;;;;;;1.53;100.00;100797.70;1762238;81;21102;-42
2021/04/19 02:08:37;;;;;;;0.10;0.10;;;;;;;1.47;100.00;100802.61;1734672;81;21117;-42
2021/04/19 02:11:29;;;;;;;0.10;0.10;;;;;;;1.42;100.00;100802.41;1730471;81;21118;-42
2021/04/19 02:14:29;;;;;;;0.68;0.45;;;;;;;1.38;100.00;100798.47;1730636;82;21137;-42
2021/04/19 02:17:29;;;;;;;2.75;0.88;;;;;;;1.34;100.00;100806.69;1732130;81;21130;-41
2021/04/19 02:20:28;;;;;;;0.55;0.55;;;;;;;1.29;100.00;100801.40;1732841;81;21573;-42
2021/04/19 02:23:00;;;;;;;0.68;0.68;;;;;;;1.28;100.00;100806.45;1732602;82;21122;-42
2021/04/19 02:25:32;;;;;;;0.98;0.40;;;;;;;1.26;100.00;100807.70;1734886;81;21130;-42
2021/04/19 02:28:07;;;;;;;0.03;0.03;;;;;;;1.22;100.00;100805.96;1732687;82;21467;-42
2021/04/19 02:30:38;;;;;;;0.62;0.62;;;;;;;1.20;100.00;100805.34;1734550;81;21094;-42
2021/04/19 02:33:13;;;;;;;0.00;0.00;;;;;;;1.19;100.00;100803.70;1678268;81;21090;-42
2021/04/19 02:35:42;;;;;;;0.13;0.13;;;;;;;1.17;100.00;100804.94;1732954;81;21106;-42
2021/04/19 02:38:16;;;;;;;1.55;0.37;;;;;;;1.16;100.00;100806.78;1734221;81;21142;-41
2021/04/19 02:40:45;;;;;;;0.10;0.10;;;;;;;1.14;100.00;100808.88;1734749;81;21157;-42
2021/04/19 02:43:12;;;;;;;0.17;0.17;;;;;;;1.13;100.00;100807.20;1763079;81;21138;-42
2021/04/19 02:45:41;;;;;;;0.72;0.72;;;;;;;1.14;100.00;100815.61;1723008;81;21129;-42
2021/04/19 02:48:13;;;;;;;0.10;0.10;;;;;;;1.17;100.00;100814.36;1729775;81;21110;-43
2021/04/19 02:50:46;;;;;;;0.33;0.33;;;;;;;1.19;100.00;100814.47;1761765;81;21111;-41
2021/04/19 02:53:13;;;;;;;0.10;0.10;;;;;;;1.22;100.00;100811.34;1740428;81;21177;-41
2021/04/19 02:55:41;;;;;;;0.10;0.10;;;;;;;1.24;100.00;100808.45;1707351;81;21126;-42
2021/04/19 02:58:09;;;;;;;0.20;0.20;;;;;;;1.25;100.00;100812.27;1654950;82;21169;-42
2021/04/19 03:00:49;;;;;;;0.50;0.50;;;;;;;1.26;100.00;100819.81;1732372;82;21114;-42
2021/04/19 03:03:26;;;;;;;0.10;0.10;;;;;;;1.26;100.00;100811.25;1755772;81;21663;-42
2021/04/19 03:05:56;;;;;;;1.00;0.45;;;;;;;1.27;100.00;100808.85;1762206;81;21154;-42
2021/04/19 03:08:26;;;;;;;0.75;0.75;;;;;;;1.28;100.00;100805.63;1762067;81;21430;-42
2021/04/19 03:10:58;;;;;;;0.47;0.47;;;;;;;1.28;100.00;100809.15;1760663;80;21448;-42
2021/04/19 03:13:26;;;;;;;0.10;0.10;;;;;;;1.32;100.00;100814.14;1706805;81;21134;-42
2021/04/19 03:15:56;;;;;;;4.17;0.53;;;;;;;1.34;100.00;100819.63;1697230;81;21099;-42
2021/04/19 03:18:25;;;;;;;0.08;0.08;;;;;;;1.36;100.00;100820.73;1757096;81;21438;-42
2021/04/19 03:21:19;;;;;;;0.05;0.05;;;;;;;1.38;100.00;100823.53;1756547;81;21623;-42
2021/04/19 03:24:02;;;;;;;0.90;0.70;;;;;;;1.44;100.00;100825.41;1866960;76;27871;-42
2021/04/19 03:26:34;;;;;;;;;;;;;;;1.46;100.00;100822.52;1806227;78;21123;-42
2021/04/19 03:29:02;;;;;;;0.13;0.13;;;;;;;1.54;100.00;100826.84;1757805;80;20577;-42
2021/04/19 03:31:44;;;;;;;0.20;0.20;;;;;;;1.60;100.00;100831.38;1773307;80;21507;-42
2021/04/19 03:34:16;;;;;;;0.20;0.20;;;;;;;1.65;100.00;100829.69;1768215;81;21217;-42
2021/04/19 03:36:44;;;;;;;0.40;0.40;;;;;;;1.74;100.00;100827.61;1740005;81;21130;-42
2021/04/19 03:39:13;;;;;;;1.17;1.15;;;;;;;1.81;100.00;100826.25;1739868;81;21578;-42
2021/04/19 03:41:45;;;;;;;0.42;0.40;;;;;;;1.90;100.00;100823.61;1771166;80;21135;-42
2021/04/19 03:44:15;;;;;;;0.42;0.42;;;;;;;1.99;100.00;100825.03;1788370;80;21568;-42
2021/04/19 03:46:43;;;;;;;0.03;0.03;;;;;;;2.08;100.00;100826.98;1776786;80;21443;-42
2021/04/19 03:49:22;;;;;;;;;;;;;;;2.18;100.00;100830.53;1774057;80;21388;-42
2021/04/19 03:51:54;;;;;;;0.03;0.03;;;;;;;2.26;100.00;100827.61;1774878;80;20262;-42
2021/04/19 03:54:25;;;;;;;0.42;0.42;;;;;;;2.34;100.00;100830.05;1748539;80;21186;-42
2021/04/19 03:56:52;;;;;;;0.20;0.20;;;;;;;2.44;100.00;100826.36;1788550;80;21153;-42
2021/04/19 03:59:21;;;;;;;0.08;0.08;;;;;;;2.56;100.00;100828.67;1758647;80;21119;-42
2021/04/19 04:01:51;;;;;;;0.30;0.30;;;;;;;2.69;100.00;100833.68;1758171;80;21437;-42
2021/04/19 04:04:19;;;;;;;0.50;0.50;;;;;;;2.79;100.00;100832.67;1756452;80;21127;-42
2021/04/19 04:06:58;;;;;;;1.20;1.17;;;;;;;2.94;100.00;100827.81;1846748;76;29528;-43
2021/04/19 04:09:29;;;;;;;1.00;0.95;;;;;;;2.99;100.00;100826.63;1776894;80;21114;-42
2021/04/19 04:11:57;;;;;;;0.30;0.30;;;;;;;3.09;100.00;100825.28;1785322;80;21149;-43
2021/04/19 04:14:50;;;;;;;0.62;0.62;;;;;;;3.18;100.00;100826.13;1783769;80;21552;-42
2021/04/19 04:17:19;;;;;;;0.15;0.15;;;;;;;3.28;100.00;100828.33;1783925;80;21157;-42
2021/04/19 04:19:51;;;;;;;0.55;0.55;;;;;;;3.37;100.00;100824.84;1780515;80;21177;-42
2021/04/19 04:22:19;;;;;;;1.00;0.93;;;;;;;3.43;100.00;100826.10;1753690;80;21133;-42
2021/04/19 04:24:47;;;;;;;0.65;0.65;;;;;;;3.55;100.00;100832.14;1755760;80;21229;-42
2021/04/19 04:27:17;;;;;;;0.88;0.88;;;;;;;3.63;100.00;100835.89;1731757;80;21106;-42
2021/04/19 04:29:45;;;;;;;0.57;0.57;;;;;;;3.71;100.00;100838.31;1785674;80;21142;-42
2021/04/19 04:32:39;;;;;;;0.30;0.30;;;;;;;3.86;100.00;100827.13;1877002;76;22747;-43
2021/04/19 04:35:12;;;;;;;;;;;;;;;3.93;100.00;100832.44;1810531;78;21569;-42
2021/04/19 04:37:40;;;;;;;0.10;0.10;;;;;;;4.04;100.00;100833.87;1821580;77;20246;-43
2021/04/19 04:40:19;;;;;;;1.25;0.68;;;;;;;4.21;100.00;100829.20;1825118;75;22375;-43
2021/04/19 04:42:48;;;;;;;0.82;0.82;;;;;;;4.29;100.00;100835.64;1786199;80;21107;-42
2021/04/19 04:45:15;;;;;;;0.20;0.20;;;;;;;4.43;100.00;100837.66;1755349;80;21133;-42
2021/04/19 04:47:47;;;;;;;0.65;0.65;;;;;;;4.60;100.00;100834.60;1786060;80;21584;-43
2021/04/19 04:50:17;;;;;;;;;;;;;;;4.79;100.00;100839.41;1788764;78;21197;-43
2021/04/19 04:52:53;;;;;;;0.10;0.10;;;;;;;4.95;100.00;100830.63;1755774;80;20265;-43
2021/04/19 04:55:28;;;;;;;0.60;0.60;;;;;;;5.16;100.00;100836.00;1789590;77;23327;-43
2021/04/19 04:57:55;;;;;;;0.60;0.60;;;;;;;5.24;100.00;100831.29;1719010;83;21574;-43
2021/04/19 05:00:23;;;;;;;0.17;0.17;;;;;;;5.37;100.00;100827.84;1729742;81;21588;-43
2021/04/19 05:02:51;;;;;;;0.50;0.50;;;;;;;5.51;100.00;100828.41;1723581;81;21126;-42
2021/04/19 05:05:19;;;;;;;0.13;0.13;;;;;;;5.59;100.00;100820.47;1753272;80;21131;-44
2021/04/19 05:07:46;;;;;;;0.88;0.68;;;;;;;5.66;100.00;100820.32;1753442;81;21103;-44
2021/04/19 05:10:14;;;;;;;0.30;0.20;;;;;;;5.80;100.00;100817.12;1724699;81;21131;-43
2021/04/19 05:12:41;;;;;;;0.23;0.23;;;;;;;5.92;100.00;100821.17;1753605;81;21580;-44
2021/04/19 05:15:12;;;;;;;0.40;0.40;;;;;;;6.02;100.00;100817.34;1753360;81;21170;-44
2021/04/19 05:17:43;;;;;;;0.40;0.40;;;;;;;6.15;100.00;100818.12;1753420;81;21122;-44
2021/04/19 05:20:13;;;;;;;0.03;0.03;;;;;;;6.24;100.00;100816.69;1747808;80;21123;-43
2021/04/19 05:22:41;;;;;;;0.10;0.10;;;;;;;6.31;100.00;100821.98;1715446;81;21162;-44
2021/04/19 05:25:10;;;;;;;1.67;1.00;;;;;;;6.36;99.67;100824.25;1742323;81;21143;-44
2021/04/19 05:27:38;;;;;;;0.20;0.20;;;;;;;6.39;97.15;100820.23;1739168;81;21154;-43
2021/04/19 05:30:07;;;;;;;0.10;0.10;;;;;;;6.40;96.93;100823.22;1743068;81;21142;-44
2021/04/19 05:32:35;;;;;;;0.10;0.10;;;;;;;6.49;97.18;100820.42;1749250;81;21155;-44
2021/04/19 05:35:04;;;;;;;1.75;0.30;;;;;;;6.59;96.80;100819.25;1751460;80;21139;-44
2021/04/19 05:37:32;;;;;;;0.53;0.53;;;;;;;6.66;96.03;100824.53;1733379;81;21158;-44
2021/04/19 05:40:01;;;;;;;0.25;0.25;;;;;;;6.70;95.87;100820.78;1695107;83;21453;-44
2021/04/19 05:42:29;;;;;;;0.30;0.30;;;;;;;6.76;95.49;100817.92;1722959;83;21130;-44
2021/04/19 05:44:57;;;;;;;0.57;0.20;;;;;;;6.83;95.14;100822.66;1672451;83;21149;-44
2021/04/19 05:47:25;;;;;;;0.47;0.47;;;;;;;6.85;94.06;100819.17;1735146;81;21102;-44
2021/04/19 05:49:53;;;;;;;0.30;0.30;;;;;;;6.89;94.18;100820.31;1724251;81;21143;-43
2021/04/19 05:52:20;;;;;;;0.53;0.20;;;;;;;6.98;94.15;100819.92;1752816;81;21486;-43
2021/04/19 05:54:48;;;;;;;0.40;0.40;;;;;;;7.07;93.39;100821.14;1724040;81;21122;-43
2021/04/19 05:57:46;;;;;;;0.20;0.20;;;;;;;7.16;92.79;100818.84;1724505;81;21141;-43
2021/04/19 06:00:27;;;;;;;0.25;0.25;;;;;;;7.24;92.32;100817.88;1752461;81;21122;-43
2021/04/19 06:03:22;;;;;;;0.20;0.20;;;;;;;7.32;91.68;100812.59;1753915;81;21614;-44
2021/04/19 06:06:11;;;;;;;0.35;0.35;;;;;;;7.39;91.27;100811.03;1755400;81;20984;-44
2021/04/19 06:08:49;;;;;;;0.45;0.45;;;;;;;7.47;90.92;100806.55;1736254;81;21210;-44
2021/04/19 06:11:28;;;;;;;0.20;0.20;;;;;;;7.57;90.36;100805.84;1668175;84;21434;-45
2021/04/19 06:14:10;;;;;;;0.30;0.30;;;;;;;7.78;90.80;100809.14;1856650;76;22033;-45
2021/04/19 06:16:38;;;;;;;0.40;0.40;;;;;;;7.91;90.04;100808.78;1781306;80;21190;-46
2021/04/19 06:19:09;;;;;;;0.40;0.20;;;;;;;8.05;89.06;100802.95;1781249;79;21200;-46
2021/04/19 06:21:38;;;;;;;1.52;0.47;;;;;;;8.20;88.58;100804.48;1769189;78;21137;-46
2021/04/19 06:24:06;;;;;;;4.15;0.95;;;;;;;8.38;87.76;100796.50;1822242;77;21165;-46
2021/04/19 06:26:35;;;;;;;1.72;1.20;;;;;;;8.52;86.30;100801.05;1792477;78;21121;-46
2021/04/19 06:29:08;;;;;;;0.20;0.20;;;;;;;8.53;85.99;100799.44;1817632;78;21216;-46
2021/04/19 06:31:36;;;;;;;0.10;0.10;;;;;;;8.58;85.64;100798.12;1818476;78;21433;-45
2021/04/19 06:34:09;;;;;;;0.98;0.75;;;;;;;8.64;85.25;100790.81;1789409;78;21655;-46
2021/04/19 06:36:40;;;;;;;1.77;0.70;;;;;;;8.66;84.74;100790.56;1799863;78;21140;-45
2021/04/19 06:39:11;;;;;;;0.33;0.33;;;;;;;8.72;83.73;100791.70;1816916;77;21102;-45
2021/04/19 06:41:40;;;;;;;1.40;0.35;;;;;;;8.74;82.69;100789.55;1817045;78;21114;-45
2021/04/19 06:44:08;;;;;;;0.37;0.35;;;;;;;8.76;83.15;100788.75;1804127;77;21173;-44
2021/04/19 06:46:38;;;;;;;0.45;0.45;;;;;;;8.82;82.60;100792.33;1818265;78;21176;-45
2021/04/19 06:49:08;;;;;;;0.95;0.95;;;;;;;8.86;81.59;100792.11;1810690;77;21115;-45
2021/04/19 06:51:37;;;;;;;0.98;0.62;;;;;;;8.81;80.88;100806.50;1803238;78;21098;-45
2021/04/19 06:54:10;;;;;;;0.53;0.53;;;;;;;8.71;81.16;100796.06;1822179;78;21114;-46
2021/04/19 06:56:42;;;;;;;0.30;0.30;;;;;;;8.71;81.79;100796.87;1831921;77;21142;-46
2021/04/19 06:59:11;;;;;;;0.65;0.47;;;;;;;8.84;82.00;100794.27;1847513;77;21157;-46
2021/04/19 07:01:39;;;;;;;0.40;0.40;;;;;;;9.00;82.31;100786.50;1811583;77;21093;-45
2021/04/19 07:04:11;;;;;;;0.55;0.55;;;;;;;9.18;80.86;100793.45;1819947;77;21124;-45
2021/04/19 07:06:39;;;;;;;0.13;0.13;;;;;;;9.25;79.98;100786.41;1838332;77;21098;-46
2021/04/19 07:09:27;;;;;;;0.68;0.68;;;;;;;9.31;80.22;100786.72;1822313;77;21138;-46
2021/04/19 07:11:58;;;;;;;0.40;0.40;;;;;;;9.49;81.45;100781.36;1822442;77;21133;-46
2021/04/19 07:14:29;;;;;;;0.35;0.30;;;;;;;9.75;80.88;100789.16;1759301;80;21169;-46
2021/04/19 07:16:57;;;;;;;0.70;0.60;;;;;;;9.95;80.44;100779.42;1758839;80;21548;-46
2021/04/19 07:19:25;;;;;;;0.45;0.45;;;;;;;10.18;80.40;100777.57;1795401;79;21113;-46
2021/04/19 07:21:53;;;;;;;0.95;0.28;;;;;;;10.35;78.16;100772.47;1765657;80;22084;-46
2021/04/19 07:24:22;;;;;;;0.30;0.30;;;;;;;10.45;78.23;100770.56;1789318;79;22104;-46
2021/04/19 07:26:52;;;;;;;1.07;1.02;;;;;;;10.60;76.89;100773.05;1804376;79;21151;-46
2021/04/19 07:29:19;;;;;;;0.40;0.40;;;;;;;10.69;75.70;100764.04;1787454;79;21147;-46
2021/04/19 07:31:51;;;;;;;0.57;0.37;;;;;;;10.87;75.12;100764.03;1806046;79;21399;-46
2021/04/19 07:34:21;;;;;;;;;;;;;;;10.99;74.22;100761.03;1774791;80;21617;-46
2021/04/19 07:37:00;;;;;;;0.37;0.37;;;;;;;11.13;74.88;100759.38;1789590;80;20265;-46
2021/04/19 07:39:30;;;;;;;0.65;0.53;;;;;;;11.37;73.79;100757.41;1789515;78;21114;-46
2021/04/19 07:42:01;;;;;;;0.90;0.90;;;;;;;11.54;72.55;100752.44;1789357;80;21142;-46
2021/04/19 07:44:50;;;;;;;0.85;0.75;;;;;;;11.69;70.86;100754.86;1803413;79;21125;-46
2021/04/19 07:47:32;;;;;;;0.65;0.47;;;;;;;11.74;70.11;100758.95;1806921;79;21144;-46
2021/04/19 07:50:16;;;;;;;2.58;0.78;;;;;;;11.74;69.82;100755.66;1793885;78;21157;-46
2021/04/19 07:52:59;;;;;;;0.28;0.28;;;;;;;11.71;68.88;100749.94;1789062;80;21118;-46
2021/04/19 07:55:35;;;;;;;0.33;0.33;;;;;;;11.75;69.32;100749.66;1790327;78;21584;-46
2021/04/19 07:58:07;;;;;;;0.57;0.57;;;;;;;11.91;69.06;100743.02;1796837;79;21120;-46
2021/04/19 08:00:38;;;;;;;2.65;1.90;;;;;;;12.03;68.84;100730.38;1791602;78;21209;-46
2021/04/19 08:05:55;;;;;;;0.37;0.37;;;;;;;12.62;67.91;100725.88;1856294;75;23254;-45
2021/04/19 08:08:37;;;;;;;0.57;0.25;;;;;;;12.62;62.38;100732.73;1835040;77;21526;-45
2021/04/19 08:11:08;;;;;;;0.23;0.23;;;;;;;12.42;63.55;100727.67;1832949;77;21134;-45
2021/04/19 08:13:36;;;;;;;0.93;0.93;;;;;;;12.38;65.66;100725.22;1840644;77;21125;-45
2021/04/19 08:16:23;;;;;;;1.37;0.93;;;;;;;12.39;65.10;100721.95;1788314;80;21110;-44
2021/04/19 08:19:00;;;;;;;0.72;0.42;;;;;;;12.62;65.33;100713.55;1824103;76;22764;-45
2021/04/19 08:21:28;;;;;;;0.23;0.23;;;;;;;12.65;63.49;100718.45;1787239;77;21122;-45
2021/04/19 08:23:56;;;;;;;0.50;0.33;;;;;;;12.61;64.50;100721.48;1754870;80;21172;-45
2021/04/19 08:26:23;;;;;;;0.42;0.42;;;;;;;12.63;63.94;100715.17;1768104;78;21154;-45
2021/04/19 08:28:52;;;;;;;1.60;0.65;;;;;;;12.69;66.25;100712.67;1772290;78;21569;-45
2021/04/19 08:31:20;;;;;;;1.20;0.80;;;;;;;12.89;65.02;100709.73;1791682;78;21154;-45
2021/04/19 08:33:50;;;;;;;0.78;0.75;;;;;;;13.01;64.94;100710.73;1755136;80;21121;-45
2021/04/19 08:36:28;;;;;;;0.82;0.82;;;;;;;13.12;62.19;100702.64;1805376;77;21126;-44
2021/04/19 08:38:56;;;;;;;0.45;0.20;;;;;;;13.20;64.25;100702.56;1784724;78;21126;-44
2021/04/19 08:41:24;;;;;;;0.20;0.20;;;;;;;13.47;63.92;100708.06;1789555;79;21439;-45
2021/04/19 08:43:52;;;;;;;0.50;0.30;;;;;;;13.39;59.80;100707.34;1814928;79;21158;-44
2021/04/19 08:46:20;;;;;;;0.60;0.60;;;;;;;13.16;60.08;100708.39;1782733;79;21139;-46
2021/04/19 08:48:47;;;;;;;0.45;0.45;;;;;;;13.05;62.07;100710.39;1740751;80;21139;-45
2021/04/19 08:51:14;;;;;;;0.62;0.60;;;;;;;13.05;60.76;100698.61;1755065;79;21118;-45
2021/04/19 08:53:43;;;;;;;0.55;0.37;;;;;;;13.15;61.14;100701.25;1715697;82;21142;-47
2021/04/19 08:56:12;;;;;;;0.30;0.30;;;;;;;13.10;59.08;100702.67;1733057;82;21121;-46
2021/04/19 08:58:40;;;;;;;0.65;0.65;;;;;;;12.94;59.57;100697.09;1733033;82;21169;-47
2021/04/19 09:01:10;;;;;;;1.17;0.50;;;;;;;12.96;60.14;100705.83;1702734;82;21189;-47
2021/04/19 09:03:38;;;;;;;7.42;2.55;;;;;;;13.04;60.23;100696.98;1732898;82;21142;-46
2021/04/19 09:06:15;;;;;;;1.25;0.30;;;;;;;13.21;59.97;100702.84;1732647;82;21499;-46
2021/04/19 09:08:43;;;;;;;1.60;1.52;;;;;;;13.40;59.65;100702.11;1733856;81;21556;-46
2021/04/19 09:11:11;;;;;;;2.50;0.62;;;;;;;13.66;57.97;100697.14;1701924;82;21110;-46
2021/04/19 09:13:44;;;;;;;3.30;1.75;;;;;;;13.76;56.70;100693.70;1701731;82;21174;-46
2021/04/19 09:16:19;;;;;;;0.62;0.40;;;;;;;13.80;56.60;100688.98;1732616;82;21169;-46
2021/04/19 09:18:55;;;;;;;0.55;0.45;;;;;;;13.83;54.22;100688.41;1733058;81;21695;-45
2021/04/19 09:21:41;;;;;;;0.80;0.80;;;;;;;13.82;53.33;100681.27;1887683;76;22715;-45
2021/04/19 09:24:17;;;;;;;0.45;0.30;;;;;;;13.66;53.73;100693.83;1852031;77;21135;-45
2021/04/19 09:26:56;;;;;;;0.28;0.28;;;;;;;13.55;53.74;100690.97;1792831;80;21157;-45
2021/04/19 09:29:34;;;;;;;1.00;0.60;;;;;;;13.54;53.88;100692.06;1792571;78;21182;-46
2021/04/19 09:32:04;;;;;;;1.12;0.85;;;;;;;13.57;52.52;100687.91;1792573;79;21109;-44
2021/04/19 09:34:48;;;;;;;1.10;0.45;;;;;;;13.64;55.19;100683.69;1792484;78;21103;-44
2021/04/19 09:37:18;;;;;;;1.37;0.65;;;;;;;13.83;57.38;100682.92;1792428;80;21125;-45
2021/04/19 09:39:51;;;;;;;0.57;0.57;;;;;;;14.11;55.99;100695.69;1792402;78;21149;-45
2021/04/19 09:45:53;;;;;;;1.00;0.40;;;;;;;13.99;55.63;100692.56;1858417;76;22665;-45
2021/04/19 09:48:32;;;;;;;1.45;0.40;;;;;;;13.98;55.32;100695.88;1820409;78;21094;-45
2021/04/19 09:54:02;;;;;;;1.35;0.72;;;;;;;14.11;55.79;100690.19;1870118;76;28185;-45
2021/04/19 09:56:46;;;;;;;2.17;0.33;;;;;;;14.20;55.20;100693.10;1764712;81;21125;-45
2021/04/19 09:59:23;;;;;;;0.75;0.55;;;;;;;14.47;55.24;100697.91;1764789;79;21568;-45
2021/04/19 10:01:53;;;;;;;0.55;0.45;;;;;;;14.77;53.32;100691.67;1764597;81;21149;-45
2021/04/19 10:04:21;;;;;;;0.25;0.25;;;;;;;15.07;51.54;100695.00;1764751;79;21173;-45
2021/04/19 10:07:00;;;;;;;0.40;0.40;;;;;;;15.07;48.60;100697.75;1764726;81;21564;-45
2021/04/19 10:09:32;;;;;;;0.82;0.82;;;;;;;15.07;52.01;100697.75;1764777;79;21146;-45
2021/04/19 10:12:03;;;;;;;4.12;0.75;;;;;;;15.34;50.34;100710.16;1735388;81;21161;-45
2021/04/19 10:14:39;;;;;;;0.23;0.10;;;;;;;15.50;50.88;100701.02;1764758;79;21178;-46
2021/04/19 10:17:19;;;;;;;0.60;0.30;;;;;;;15.84;50.81;100698.44;1764729;81;21130;-45
2021/04/19 10:19:49;;;;;;;0.68;0.42;;;;;;;16.19;49.86;100696.00;1764710;79;21146;-46
2021/04/19 10:22:17;;;;;;;0.57;0.53;;;;;;;16.20;46.95;100700.41;1764764;81;21126;-46
2021/04/19 10:24:59;;;;;;;0.42;0.42;;;;;;;16.20;46.95;100700.41;1764470;79;21149;-46
2021/04/19 10:27:31;;;;;;;0.82;0.82;;;;;;;16.27;46.29;100694.72;1764367;81;21125;-45
2021/04/19 10:30:16;;;;;;;0.40;0.40;;;;;;;16.39;46.01;100690.57;1764434;79;21133;-45
2021/04/19 10:32:44;;;;;;;0.50;0.50;;;;;;;16.39;46.01;100690.57;1764248;81;21137;-46
2021/04/19 10:35:35;;;;;;;1.30;0.82;;;;;;;16.32;48.00;100689.65;1764357;79;21650;-46
2021/04/19 10:38:06;;;;;;;3.35;0.68;;;;;;;16.39;47.56;100685.05;1759981;81;21536;-45
2021/04/19 10:40:34;;;;;;;0.68;0.68;;;;;;;16.45;47.86;100687.95;1764393;79;21537;-45
2021/04/19 10:43:11;;;;;;;1.02;0.65;;;;;;;16.49;47.34;100683.42;1764345;81;21138;-45
2021/04/19 10:45:39;;;;;;;0.20;0.20;;;;;;;15.67;48.12;100686.06;1755365;79;21153;-45
2021/04/19 10:48:27;;;;;;;0.90;0.30;;;;;;;15.67;48.12;100686.06;1734038;81;21153;-46
2021/04/19 10:50:59;;;;;;;0.65;0.33;;;;;;;15.31;48.03;100687.94;1757485;81;21165;-46
2021/04/19 10:53:34;;;;;;;0.43;0.43;;;;;;;14.96;48.78;100693.81;1735151;81;21145;-46
2021/04/19 10:56:05;;;;;;;0.17;0.10;;;;;;;14.79;49.58;100683.94;1764390;79;21146;-45
2021/04/19 10:58:37;;;;;;;0.33;0.20;;;;;;;14.73;49.92;100689.26;1764324;81;21110;-45
2021/04/19 11:01:05;;;;;;;0.10;0.10;;;;;;;14.70;47.76;100689.87;1764677;79;21126;-45
2021/04/19 11:03:39;;;;;;;0.20;0.20;;;;;;;14.60;48.75;100686.73;1733918;81;21189;-46
2021/04/19 11:06:08;;;;;;;0.82;0.82;;;;;;;14.54;50.57;100687.38;1735004;81;21133;-45
2021/04/19 11:09:01;;;;;;;0.20;0.20;;;;;;;14.59;51.82;100684.55;1763768;81;21139;-45
2021/04/19 11:11:41;;;;;;;0.20;0.20;;;;;;;14.70;51.08;100678.87;1764073;81;21182;-45
2021/04/19 11:14:25;;;;;;;0.15;0.15;;;;;;;14.74;49.76;100676.59;1763806;81;21162;-45
2021/04/19 11:17:02;;;;;;;0.55;0.13;;;;;;;14.70;50.33;100673.36;1764139;81;21170;-46
2021/04/19 11:19:46;;;;;;;0.10;0.10;;;;;;;14.65;50.79;100671.52;1763840;81;21140;-45
2021/04/19 11:22:31;;;;;;;0.28;0.28;;;;;;;14.53;49.90;100674.73;1763771;81;21645;-45
2021/04/19 11:25:20;;;;;;;0.10;0.10;;;;;;;14.45;49.50;100668.52;1761667;80;21138;-44
2021/04/19 11:27:53;;;;;;;0.13;0.13;;;;;;;14.55;51.72;100664.25;1743650;81;21165;-45
2021/04/19 11:30:30;;;;;;;0.78;0.50;;;;;;;14.74;50.67;100668.91;1740796;81;21609;-45
2021/04/19 11:33:11;;;;;;;1.75;0.88;;;;;;;14.82;50.43;100662.70;1763650;81;21226;-45
2021/04/19 11:35:48;;;;;;;1.27;0.93;;;;;;;14.88;50.14;100661.47;1764011;81;21131;-46
2021/04/19 11:38:20;;;;;;;0.13;0.13;;;;;;;14.93;48.87;100664.13;1745193;80;21142;-46
2021/04/19 11:41:00;;;;;;;0.30;0.20;;;;;;;14.81;49.62;100661.89;1737013;81;21611;-45
2021/04/19 11:43:29;;;;;;;0.20;0.20;;;;;;;14.57;47.57;100662.02;1762910;81;21153;-45
2021/04/19 11:46:09;;;;;;;0.40;0.10;;;;;;;14.37;49.29;100671.96;1750078;81;21137;-46
2021/04/19 11:48:39;;;;;;;0.30;0.30;;;;;;;14.27;48.04;100662.47;1755024;81;21149;-45
2021/04/19 11:51:08;;;;;;;0.10;0.10;;;;;;;14.16;48.59;100661.27;1763703;80;21429;-46
2021/04/19 11:53:39;;;;;;;0.20;0.15;;;;;;;14.17;51.18;100653.30;1763454;80;21120;-47
2021/04/19 11:56:09;;;;;;;0.42;0.30;;;;;;;14.32;47.39;100661.05;1763917;80;21125;-47
2021/04/19 11:58:41;;;;;;;0.50;0.50;;;;;;;14.26;47.18;100659.48;1762571;81;21161;-47
2021/04/19 12:01:11;;;;;;;;;;;;;;;14.07;48.25;100650.70;1749038;80;21186;-46